Accueil
METAR-TAF:

METAR-TAF

Aéroports :

Army Air Corps Middle Wallop

Middle Wallop, Angleterre

latitude: 51-09N, longitude: 001-34W, altitude: 91 m

Observation

Le bulletin a été fait il y a 44 minutes, à 07:50 UTC
Vent 4 kt de nord-est
Température 7°C
Humidité 57%
Pression 1030 hPa
Visibilité 10 km ou plus

METAR: EGVP 170750Z AUTO 05004KT 9999 NCD 07/M01 Q1030

Heure: 09:34 (08:34 UTC)

Prévision

Le bulletin a été fait il y a 19 heures et 14 minutes, à 13:20 UTC
Prévision valable du 16 à 15 UTC au 16 à 18 UTC
Vent 8 kt de est/nord-est
Visibilité 10 km ou plus
pas de nuages en-dessous de 1500 mètres et pas de cumulonimbus.

TAF: EGVP 161320Z 1615/1618 06008KT CAVOK

Observations et prévisions météorologiques de plus de 4000 aéroports (messages METAR et TAF).

Les stations disponibles sont représentées par des disques jaunes et rouges sur la carte.

Passer la souris dessus pour voir le nom de la station.

Cliquer dessus pour voir les observations et prévisions météorologiques.

Pour changer de carte: cliquez sur les boutons verts avec une croix noire pour zoomer, sur le bouton vert avec un tiret pour effectuer un zoom arrière, ou sur les flèches vertes pour les cartes adjacentes.


METAR-TAF: